sensor_id;sensor_type;location;lat;lon;timestamp;P1;durP1;ratioP1;P2;durP2;ratioP2
41861;SDS011;27537;57.134;-2.136;2023-12-04T00:01:53;8.35;;;2.20;;
41861;SDS011;27537;57.134;-2.136;2023-12-04T00:04:19;6.63;;;2.13;;
41861;SDS011;27537;57.134;-2.136;2023-12-04T00:06:46;8.00;;;1.65;;
41861;SDS011;27537;57.134;-2.136;2023-12-04T00:09:13;4.28;;;1.60;;
41861;SDS011;27537;57.134;-2.136;2023-12-04T00:11:40;6.97;;;2.33;;
41861;SDS011;27537;57.134;-2.136;2023-12-04T00:14:06;3.75;;;1.40;;
41861;SDS011;27537;57.134;-2.136;2023-12-04T00:16:34;7.18;;;2.38;;
41861;SDS011;27537;57.134;-2.136;2023-12-04T00:19:04;3.53;;;1.55;;
41861;SDS011;27537;57.134;-2.136;2023-12-04T00:21:30;3.50;;;1.50;;
41861;SDS011;27537;57.134;-2.136;2023-12-04T00:23:57;4.25;;;1.50;;
41861;SDS011;27537;57.134;-2.136;2023-12-04T00:26:24;2.58;;;1.20;;
41861;SDS011;27537;57.134;-2.136;2023-12-04T00:28:51;2.10;;;1.30;;
41861;SDS011;27537;57.134;-2.136;2023-12-04T00:31:17;4.05;;;1.30;;
41861;SDS011;27537;57.134;-2.136;2023-12-04T00:33:44;3.75;;;1.63;;
41861;SDS011;27537;57.134;-2.136;2023-12-04T00:36:11;2.97;;;1.30;;
41861;SDS011;27537;57.134;-2.136;2023-12-04T00:38:38;4.00;;;1.50;;
41861;SDS011;27537;57.134;-2.136;2023-12-04T00:41:04;2.38;;;1.10;;
41861;SDS011;27537;57.134;-2.136;2023-12-04T00:43:31;3.60;;;1.13;;
41861;SDS011;27537;57.134;-2.136;2023-12-04T00:45:58;2.75;;;1.25;;
41861;SDS011;27537;57.134;-2.136;2023-12-04T00:48:25;3.28;;;1.20;;
41861;SDS011;27537;57.134;-2.136;2023-12-04T00:50:51;3.70;;;1.13;;
41861;SDS011;27537;57.134;-2.136;2023-12-04T00:53:18;3.78;;;1.20;;
41861;SDS011;27537;57.134;-2.136;2023-12-04T00:55:45;2.22;;;1.10;;
41861;SDS011;27537;57.134;-2.136;2023-12-04T00:58:11;3.53;;;1.40;;
41861;SDS011;27537;57.134;-2.136;2023-12-04T01:00:39;3.17;;;1.38;;
41861;SDS011;27537;57.134;-2.136;2023-12-04T01:03:05;5.50;;;1.40;;
41861;SDS011;27537;57.134;-2.136;2023-12-04T01:05:32;7.80;;;1.88;;
41861;SDS011;27537;57.134;-2.136;2023-12-04T01:07:59;3.13;;;1.35;;
41861;SDS011;27537;57.134;-2.136;2023-12-04T01:10:26;3.50;;;1.40;;
41861;SDS011;27537;57.134;-2.136;2023-12-04T01:12:53;3.78;;;1.33;;
41861;SDS011;27537;57.134;-2.136;2023-12-04T01:15:19;4.18;;;1.40;;
41861;SDS011;27537;57.134;-2.136;2023-12-04T01:17:46;13.35;;;2.63;;
41861;SDS011;27537;57.134;-2.136;2023-12-04T01:20:13;6.00;;;1.48;;
41861;SDS011;27537;57.134;-2.136;2023-12-04T01:22:40;3.42;;;1.40;;
41861;SDS011;27537;57.134;-2.136;2023-12-04T01:25:07;8.25;;;2.60;;
41861;SDS011;27537;57.134;-2.136;2023-12-04T01:27:34;5.60;;;1.67;;
41861;SDS011;27537;57.134;-2.136;2023-12-04T01:30:05;5.72;;;1.73;;
41861;SDS011;27537;57.134;-2.136;2023-12-04T01:32:34;3.50;;;1.33;;
41861;SDS011;27537;57.134;-2.136;2023-12-04T01:35:01;6.13;;;1.50;;
41861;SDS011;27537;57.134;-2.136;2023-12-04T01:37:28;2.88;;;1.23;;
41861;SDS011;27537;57.134;-2.136;2023-12-04T01:39:55;3.13;;;1.10;;
41861;SDS011;27537;57.134;-2.136;2023-12-04T01:42:22;1.30;;;1.10;;
41861;SDS011;27537;57.134;-2.136;2023-12-04T01:44:49;3.80;;;1.30;;
41861;SDS011;27537;57.134;-2.136;2023-12-04T01:47:15;2.90;;;1.20;;
41861;SDS011;27537;57.134;-2.136;2023-12-04T01:49:44;8.80;;;1.55;;
41861;SDS011;27537;57.134;-2.136;2023-12-04T01:52:10;8.38;;;1.60;;
41861;SDS011;27537;57.134;-2.136;2023-12-04T01:54:38;7.43;;;1.50;;
41861;SDS011;27537;57.134;-2.136;2023-12-04T01:57:05;4.03;;;1.20;;
41861;SDS011;27537;57.134;-2.136;2023-12-04T01:59:32;3.97;;;1.30;;
41861;SDS011;27537;57.134;-2.136;2023-12-04T02:01:59;2.63;;;1.10;;
41861;SDS011;27537;57.134;-2.136;2023-12-04T02:04:27;6.10;;;2.63;;
41861;SDS011;27537;57.134;-2.136;2023-12-04T02:06:53;4.05;;;1.20;;
41861;SDS011;27537;57.134;-2.136;2023-12-04T02:09:20;2.33;;;1.13;;
41861;SDS011;27537;57.134;-2.136;2023-12-04T02:11:47;3.08;;;1.58;;
41861;SDS011;27537;57.134;-2.136;2023-12-04T02:14:14;1.73;;;0.93;;
41861;SDS011;27537;57.134;-2.136;2023-12-04T02:16:41;2.50;;;1.10;;
41861;SDS011;27537;57.134;-2.136;2023-12-04T02:19:13;1.75;;;0.98;;
41861;SDS011;27537;57.134;-2.136;2023-12-04T02:21:40;3.13;;;0.90;;
41861;SDS011;27537;57.134;-2.136;2023-12-04T02:24:06;2.00;;;1.02;;
41861;SDS011;27537;57.134;-2.136;2023-12-04T02:26:39;6.20;;;1.40;;
41861;SDS011;27537;57.134;-2.136;2023-12-04T02:29:14;3.38;;;1.00;;
41861;SDS011;27537;57.134;-2.136;2023-12-04T02:31:45;5.78;;;1.42;;
41861;SDS011;27537;57.134;-2.136;2023-12-04T02:34:13;4.68;;;1.30;;
41861;SDS011;27537;57.134;-2.136;2023-12-04T02:36:42;5.70;;;1.40;;
41861;SDS011;27537;57.134;-2.136;2023-12-04T02:39:10;7.95;;;1.63;;
41861;SDS011;27537;57.134;-2.136;2023-12-04T02:41:37;4.18;;;1.20;;
41861;SDS011;27537;57.134;-2.136;2023-12-04T02:44:04;2.75;;;1.27;;
41861;SDS011;27537;57.134;-2.136;2023-12-04T02:46:31;3.92;;;2.00;;
41861;SDS011;27537;57.134;-2.136;2023-12-04T02:48:57;2.72;;;1.20;;
41861;SDS011;27537;57.134;-2.136;2023-12-04T02:51:24;3.47;;;1.13;;
41861;SDS011;27537;57.134;-2.136;2023-12-04T02:53:52;4.05;;;1.42;;
41861;SDS011;27537;57.134;-2.136;2023-12-04T02:56:19;5.57;;;1.20;;
41861;SDS011;27537;57.134;-2.136;2023-12-04T02:58:46;5.63;;;1.48;;
41861;SDS011;27537;57.134;-2.136;2023-12-04T03:01:12;10.20;;;2.28;;
41861;SDS011;27537;57.134;-2.136;2023-12-04T03:03:39;4.00;;;1.40;;
41861;SDS011;27537;57.134;-2.136;2023-12-04T03:06:06;3.22;;;1.10;;
41861;SDS011;27537;57.134;-2.136;2023-12-04T03:08:33;3.17;;;1.10;;
41861;SDS011;27537;57.134;-2.136;2023-12-04T03:11:01;4.82;;;1.25;;
41861;SDS011;27537;57.134;-2.136;2023-12-04T03:13:29;6.75;;;1.73;;
41861;SDS011;27537;57.134;-2.136;2023-12-04T03:15:56;6.43;;;1.88;;
41861;SDS011;27537;57.134;-2.136;2023-12-04T03:18:23;8.43;;;1.90;;
41861;SDS011;27537;57.134;-2.136;2023-12-04T03:20:51;8.82;;;1.55;;
41861;SDS011;27537;57.134;-2.136;2023-12-04T03:23:18;6.50;;;1.60;;
41861;SDS011;27537;57.134;-2.136;2023-12-04T03:25:45;5.88;;;1.60;;
41861;SDS011;27537;57.134;-2.136;2023-12-04T03:28:11;3.83;;;1.40;;
41861;SDS011;27537;57.134;-2.136;2023-12-04T03:30:39;6.80;;;1.27;;
41861;SDS011;27537;57.134;-2.136;2023-12-04T03:33:06;8.57;;;1.98;;
41861;SDS011;27537;57.134;-2.136;2023-12-04T03:35:33;4.82;;;1.77;;
41861;SDS011;27537;57.134;-2.136;2023-12-04T03:37:59;10.40;;;1.95;;
41861;SDS011;27537;57.134;-2.136;2023-12-04T03:40:26;7.88;;;1.40;;
41861;SDS011;27537;57.134;-2.136;2023-12-04T03:42:53;5.70;;;1.70;;
41861;SDS011;27537;57.134;-2.136;2023-12-04T03:45:20;2.67;;;1.17;;
41861;SDS011;27537;57.134;-2.136;2023-12-04T03:47:46;3.13;;;1.13;;
41861;SDS011;27537;57.134;-2.136;2023-12-04T03:50:13;5.97;;;1.60;;
41861;SDS011;27537;57.134;-2.136;2023-12-04T03:52:40;2.78;;;1.20;;
41861;SDS011;27537;57.134;-2.136;2023-12-04T03:55:08;12.02;;;2.17;;
41861;SDS011;27537;57.134;-2.136;2023-12-04T03:57:35;8.45;;;1.50;;
41861;SDS011;27537;57.134;-2.136;2023-12-04T04:00:02;4.25;;;1.30;;
41861;SDS011;27537;57.134;-2.136;2023-12-04T04:02:29;3.63;;;1.23;;
41861;SDS011;27537;57.134;-2.136;2023-12-04T04:04:57;5.13;;;1.15;;
41861;SDS011;27537;57.134;-2.136;2023-12-04T04:07:23;7.95;;;1.50;;
41861;SDS011;27537;57.134;-2.136;2023-12-04T04:09:50;7.18;;;1.80;;
41861;SDS011;27537;57.134;-2.136;2023-12-04T04:12:17;9.13;;;2.17;;
41861;SDS011;27537;57.134;-2.136;2023-12-04T04:14:43;7.32;;;1.95;;
41861;SDS011;27537;57.134;-2.136;2023-12-04T04:17:10;5.65;;;1.70;;
41861;SDS011;27537;57.134;-2.136;2023-12-04T04:19:37;7.00;;;1.50;;
41861;SDS011;27537;57.134;-2.136;2023-12-04T04:22:03;13.10;;;2.00;;
41861;SDS011;27537;57.134;-2.136;2023-12-04T04:24:30;7.47;;;2.38;;
41861;SDS011;27537;57.134;-2.136;2023-12-04T04:26:57;6.18;;;1.60;;
41861;SDS011;27537;57.134;-2.136;2023-12-04T04:29:24;4.47;;;1.40;;
41861;SDS011;27537;57.134;-2.136;2023-12-04T04:31:50;5.82;;;1.90;;
41861;SDS011;27537;57.134;-2.136;2023-12-04T04:34:18;10.85;;;2.30;;
41861;SDS011;27537;57.134;-2.136;2023-12-04T04:36:46;6.80;;;2.15;;
41861;SDS011;27537;57.134;-2.136;2023-12-04T04:39:13;7.57;;;1.70;;
41861;SDS011;27537;57.134;-2.136;2023-12-04T04:41:40;4.97;;;1.50;;
41861;SDS011;27537;57.134;-2.136;2023-12-04T04:44:07;16.00;;;1.80;;
41861;SDS011;27537;57.134;-2.136;2023-12-04T04:46:33;11.57;;;2.28;;
41861;SDS011;27537;57.134;-2.136;2023-12-04T04:49:00;8.90;;;1.67;;
41861;SDS011;27537;57.134;-2.136;2023-12-04T04:51:27;4.35;;;1.48;;
41861;SDS011;27537;57.134;-2.136;2023-12-04T04:53:55;6.10;;;1.60;;
41861;SDS011;27537;57.134;-2.136;2023-12-04T04:56:22;9.93;;;2.30;;
41861;SDS011;27537;57.134;-2.136;2023-12-04T04:58:49;8.10;;;1.52;;
41861;SDS011;27537;57.134;-2.136;2023-12-04T05:01:18;4.97;;;1.73;;
41861;SDS011;27537;57.134;-2.136;2023-12-04T05:03:45;7.35;;;1.80;;
41861;SDS011;27537;57.134;-2.136;2023-12-04T05:06:12;8.05;;;1.90;;
41861;SDS011;27537;57.134;-2.136;2023-12-04T05:08:39;7.47;;;1.63;;
41861;SDS011;27537;57.134;-2.136;2023-12-04T05:11:06;10.93;;;2.35;;
41861;SDS011;27537;57.134;-2.136;2023-12-04T05:13:32;13.20;;;2.03;;
41861;SDS011;27537;57.134;-2.136;2023-12-04T05:16:00;12.05;;;2.10;;
41861;SDS011;27537;57.134;-2.136;2023-12-04T05:18:26;17.17;;;3.22;;
41861;SDS011;27537;57.134;-2.136;2023-12-04T05:20:53;11.75;;;2.13;;
41861;SDS011;27537;57.134;-2.136;2023-12-04T05:23:20;23.13;;;3.00;;
41861;SDS011;27537;57.134;-2.136;2023-12-04T05:25:46;10.68;;;2.47;;
41861;SDS011;27537;57.134;-2.136;2023-12-04T05:28:16;14.45;;;2.97;;
41861;SDS011;27537;57.134;-2.136;2023-12-04T05:30:43;10.85;;;2.33;;
41861;SDS011;27537;57.134;-2.136;2023-12-04T05:33:10;17.75;;;2.55;;
41861;SDS011;27537;57.134;-2.136;2023-12-04T05:35:36;12.70;;;3.00;;
41861;SDS011;27537;57.134;-2.136;2023-12-04T05:38:04;9.70;;;2.65;;
41861;SDS011;27537;57.134;-2.136;2023-12-04T05:40:31;10.65;;;2.33;;
41861;SDS011;27537;57.134;-2.136;2023-12-04T05:42:57;10.45;;;2.78;;
41861;SDS011;27537;57.134;-2.136;2023-12-04T05:45:24;23.00;;;5.68;;
41861;SDS011;27537;57.134;-2.136;2023-12-04T05:47:51;11.45;;;2.53;;
41861;SDS011;27537;57.134;-2.136;2023-12-04T05:50:19;14.45;;;3.35;;
41861;SDS011;27537;57.134;-2.136;2023-12-04T05:52:45;12.23;;;2.42;;
41861;SDS011;27537;57.134;-2.136;2023-12-04T05:55:12;13.18;;;2.97;;
41861;SDS011;27537;57.134;-2.136;2023-12-04T05:57:39;13.27;;;2.67;;
41861;SDS011;27537;57.134;-2.136;2023-12-04T06:00:06;10.27;;;2.13;;
41861;SDS011;27537;57.134;-2.136;2023-12-04T06:02:39;13.82;;;2.50;;
41861;SDS011;27537;57.134;-2.136;2023-12-04T06:05:06;17.10;;;2.55;;
41861;SDS011;27537;57.134;-2.136;2023-12-04T06:07:34;12.52;;;2.67;;
41861;SDS011;27537;57.134;-2.136;2023-12-04T06:10:02;9.95;;;2.67;;
41861;SDS011;27537;57.134;-2.136;2023-12-04T06:12:32;17.02;;;2.72;;
41861;SDS011;27537;57.134;-2.136;2023-12-04T06:14:59;15.55;;;3.38;;
41861;SDS011;27537;57.134;-2.136;2023-12-04T06:17:26;12.70;;;2.47;;
41861;SDS011;27537;57.134;-2.136;2023-12-04T06:19:53;16.33;;;3.92;;
41861;SDS011;27537;57.134;-2.136;2023-12-04T06:22:20;11.40;;;2.55;;
41861;SDS011;27537;57.134;-2.136;2023-12-04T06:24:48;11.68;;;2.05;;
41861;SDS011;27537;57.134;-2.136;2023-12-04T06:27:16;6.72;;;1.90;;
41861;SDS011;27537;57.134;-2.136;2023-12-04T06:29:47;10.55;;;2.58;;
41861;SDS011;27537;57.134;-2.136;2023-12-04T06:32:18;10.85;;;2.05;;
41861;SDS011;27537;57.134;-2.136;2023-12-04T06:34:46;8.30;;;2.10;;
41861;SDS011;27537;57.134;-2.136;2023-12-04T06:37:13;14.60;;;2.30;;
41861;SDS011;27537;57.134;-2.136;2023-12-04T06:39:41;9.52;;;3.35;;
41861;SDS011;27537;57.134;-2.136;2023-12-04T06:42:08;13.45;;;2.35;;
41861;SDS011;27537;57.134;-2.136;2023-12-04T06:44:36;9.27;;;2.45;;
41861;SDS011;27537;57.134;-2.136;2023-12-04T06:47:03;12.15;;;2.10;;
41861;SDS011;27537;57.134;-2.136;2023-12-04T06:49:31;6.07;;;1.95;;
41861;SDS011;27537;57.134;-2.136;2023-12-04T06:52:00;9.27;;;3.05;;
41861;SDS011;27537;57.134;-2.136;2023-12-04T06:54:27;14.35;;;2.72;;
41861;SDS011;27537;57.134;-2.136;2023-12-04T06:56:54;7.47;;;1.95;;
41861;SDS011;27537;57.134;-2.136;2023-12-04T06:59:21;13.10;;;2.75;;
41861;SDS011;27537;57.134;-2.136;2023-12-04T07:01:47;8.40;;;2.58;;
41861;SDS011;27537;57.134;-2.136;2023-12-04T07:04:15;9.43;;;2.42;;
41861;SDS011;27537;57.134;-2.136;2023-12-04T07:06:47;10.77;;;2.55;;
41861;SDS011;27537;57.134;-2.136;2023-12-04T07:09:15;8.85;;;2.67;;
41861;SDS011;27537;57.134;-2.136;2023-12-04T07:11:43;8.20;;;2.33;;
41861;SDS011;27537;57.134;-2.136;2023-12-04T07:14:10;14.73;;;3.70;;
41861;SDS011;27537;57.134;-2.136;2023-12-04T07:16:43;17.48;;;3.30;;
41861;SDS011;27537;57.134;-2.136;2023-12-04T07:19:10;9.55;;;2.67;;
41861;SDS011;27537;57.134;-2.136;2023-12-04T07:21:37;19.33;;;4.35;;
41861;SDS011;27537;57.134;-2.136;2023-12-04T07:24:05;18.08;;;3.67;;
41861;SDS011;27537;57.134;-2.136;2023-12-04T07:26:33;18.33;;;4.32;;
41861;SDS011;27537;57.134;-2.136;2023-12-04T07:29:03;17.42;;;4.38;;
41861;SDS011;27537;57.134;-2.136;2023-12-04T07:31:30;18.42;;;4.28;;
41861;SDS011;27537;57.134;-2.136;2023-12-04T07:33:57;13.70;;;3.22;;
41861;SDS011;27537;57.134;-2.136;2023-12-04T07:36:26;12.18;;;2.70;;
41861;SDS011;27537;57.134;-2.136;2023-12-04T07:38:54;10.77;;;3.22;;
41861;SDS011;27537;57.134;-2.136;2023-12-04T07:41:21;15.30;;;4.53;;
41861;SDS011;27537;57.134;-2.136;2023-12-04T07:43:48;12.90;;;3.47;;
41861;SDS011;27537;57.134;-2.136;2023-12-04T07:46:15;9.38;;;3.72;;
41861;SDS011;27537;57.134;-2.136;2023-12-04T07:48:42;13.68;;;4.25;;
41861;SDS011;27537;57.134;-2.136;2023-12-04T07:51:10;12.18;;;3.80;;
41861;SDS011;27537;57.134;-2.136;2023-12-04T07:53:37;21.95;;;4.47;;
41861;SDS011;27537;57.134;-2.136;2023-12-04T07:56:04;20.55;;;5.93;;
41861;SDS011;27537;57.134;-2.136;2023-12-04T07:58:31;16.00;;;4.20;;
41861;SDS011;27537;57.134;-2.136;2023-12-04T08:00:58;23.15;;;4.82;;
41861;SDS011;27537;57.134;-2.136;2023-12-04T08:03:25;12.80;;;3.38;;
41861;SDS011;27537;57.134;-2.136;2023-12-04T08:05:53;15.65;;;3.50;;
41861;SDS011;27537;57.134;-2.136;2023-12-04T08:08:20;18.05;;;4.53;;
41861;SDS011;27537;57.134;-2.136;2023-12-04T08:10:47;13.88;;;3.88;;
41861;SDS011;27537;57.134;-2.136;2023-12-04T08:13:14;15.65;;;3.80;;
41861;SDS011;27537;57.134;-2.136;2023-12-04T08:15:42;15.07;;;4.50;;
41861;SDS011;27537;57.134;-2.136;2023-12-04T08:18:10;13.65;;;4.00;;
41861;SDS011;27537;57.134;-2.136;2023-12-04T08:20:37;12.32;;;3.75;;
41861;SDS011;27537;57.134;-2.136;2023-12-04T08:23:06;15.27;;;4.13;;
41861;SDS011;27537;57.134;-2.136;2023-12-04T08:25:33;12.02;;;3.22;;
41861;SDS011;27537;57.134;-2.136;2023-12-04T08:28:02;15.40;;;4.00;;
41861;SDS011;27537;57.134;-2.136;2023-12-04T08:30:29;16.05;;;4.38;;
41861;SDS011;27537;57.134;-2.136;2023-12-04T08:32:56;14.30;;;4.65;;
41861;SDS011;27537;57.134;-2.136;2023-12-04T08:35:23;17.33;;;4.53;;
41861;SDS011;27537;57.134;-2.136;2023-12-04T08:37:50;15.77;;;4.15;;
41861;SDS011;27537;57.134;-2.136;2023-12-04T08:40:17;19.67;;;5.15;;
41861;SDS011;27537;57.134;-2.136;2023-12-04T08:42:44;9.20;;;3.13;;
41861;SDS011;27537;57.134;-2.136;2023-12-04T08:45:11;12.90;;;4.00;;
41861;SDS011;27537;57.134;-2.136;2023-12-04T08:47:38;16.02;;;3.80;;
41861;SDS011;27537;57.134;-2.136;2023-12-04T08:50:05;17.92;;;3.85;;
41861;SDS011;27537;57.134;-2.136;2023-12-04T08:52:33;12.75;;;4.20;;
41861;SDS011;27537;57.134;-2.136;2023-12-04T08:55:00;19.23;;;4.45;;
41861;SDS011;27537;57.134;-2.136;2023-12-04T08:57:27;21.20;;;4.07;;
41861;SDS011;27537;57.134;-2.136;2023-12-04T08:59:54;23.55;;;4.50;;
41861;SDS011;27537;57.134;-2.136;2023-12-04T09:02:20;14.07;;;3.70;;
41861;SDS011;27537;57.134;-2.136;2023-12-04T09:04:47;11.57;;;3.70;;
41861;SDS011;27537;57.134;-2.136;2023-12-04T09:07:14;16.73;;;4.22;;
41861;SDS011;27537;57.134;-2.136;2023-12-04T09:09:44;13.00;;;3.60;;
41861;SDS011;27537;57.134;-2.136;2023-12-04T09:12:13;11.57;;;3.22;;
41861;SDS011;27537;57.134;-2.136;2023-12-04T09:14:40;16.38;;;4.00;;
41861;SDS011;27537;57.134;-2.136;2023-12-04T09:17:07;15.77;;;4.80;;
41861;SDS011;27537;57.134;-2.136;2023-12-04T09:19:34;11.90;;;3.40;;
41861;SDS011;27537;57.134;-2.136;2023-12-04T09:22:01;12.60;;;2.97;;
41861;SDS011;27537;57.134;-2.136;2023-12-04T09:24:42;11.50;;;3.22;;
41861;SDS011;27537;57.134;-2.136;2023-12-04T09:27:11;17.02;;;3.67;;
41861;SDS011;27537;57.134;-2.136;2023-12-04T09:29:37;15.80;;;3.85;;
41861;SDS011;27537;57.134;-2.136;2023-12-04T09:32:04;17.17;;;3.58;;
41861;SDS011;27537;57.134;-2.136;2023-12-04T09:34:32;19.48;;;4.78;;
41861;SDS011;27537;57.134;-2.136;2023-12-04T09:36:59;16.23;;;3.25;;
41861;SDS011;27537;57.134;-2.136;2023-12-04T09:39:35;19.15;;;4.82;;
41861;SDS011;27537;57.134;-2.136;2023-12-04T09:42:02;11.40;;;3.20;;
41861;SDS011;27537;57.134;-2.136;2023-12-04T09:44:29;13.00;;;3.30;;
41861;SDS011;27537;57.134;-2.136;2023-12-04T09:46:57;17.27;;;3.10;;
41861;SDS011;27537;57.134;-2.136;2023-12-04T09:49:26;11.18;;;2.75;;
41861;SDS011;27537;57.134;-2.136;2023-12-04T09:51:57;15.00;;;5.13;;
41861;SDS011;27537;57.134;-2.136;2023-12-04T09:54:24;12.20;;;2.83;;
41861;SDS011;27537;57.134;-2.136;2023-12-04T09:56:52;9.75;;;2.40;;
41861;SDS011;27537;57.134;-2.136;2023-12-04T09:59:19;10.88;;;3.50;;
41861;SDS011;27537;57.134;-2.136;2023-12-04T10:01:51;14.37;;;3.00;;
41861;SDS011;27537;57.134;-2.136;2023-12-04T10:04:19;11.70;;;2.65;;
41861;SDS011;27537;57.134;-2.136;2023-12-04T10:06:49;10.60;;;3.28;;
41861;SDS011;27537;57.134;-2.136;2023-12-04T10:09:18;11.48;;;3.30;;
41861;SDS011;27537;57.134;-2.136;2023-12-04T10:11:45;10.88;;;3.10;;
41861;SDS011;27537;57.134;-2.136;2023-12-04T10:14:16;12.77;;;3.97;;
41861;SDS011;27537;57.134;-2.136;2023-12-04T10:16:43;13.00;;;3.70;;
41861;SDS011;27537;57.134;-2.136;2023-12-04T10:19:18;11.15;;;3.58;;
41861;SDS011;27537;57.134;-2.136;2023-12-04T10:21:57;14.43;;;3.08;;
41861;SDS011;27537;57.134;-2.136;2023-12-04T10:27:00;12.95;;;3.45;;
41861;SDS011;27537;57.134;-2.136;2023-12-04T10:29:41;18.27;;;3.88;;
41861;SDS011;27537;57.134;-2.136;2023-12-04T10:32:08;11.60;;;3.00;;
41861;SDS011;27537;57.134;-2.136;2023-12-04T10:34:35;10.32;;;3.17;;
41861;SDS011;27537;57.134;-2.136;2023-12-04T10:37:02;12.38;;;3.60;;
41861;SDS011;27537;57.134;-2.136;2023-12-04T10:39:32;17.02;;;3.25;;
41861;SDS011;27537;57.134;-2.136;2023-12-04T10:42:23;15.95;;;4.55;;
41861;SDS011;27537;57.134;-2.136;2023-12-04T10:44:57;15.07;;;3.25;;
41861;SDS011;27537;57.134;-2.136;2023-12-04T10:47:24;20.52;;;3.67;;
41861;SDS011;27537;57.134;-2.136;2023-12-04T10:49:52;13.95;;;2.97;;
41861;SDS011;27537;57.134;-2.136;2023-12-04T10:52:19;8.68;;;3.00;;
41861;SDS011;27537;57.134;-2.136;2023-12-04T10:54:50;15.45;;;3.47;;
41861;SDS011;27537;57.134;-2.136;2023-12-04T10:57:21;16.50;;;3.33;;
41861;SDS011;27537;57.134;-2.136;2023-12-04T10:59:55;16.77;;;3.83;;
41861;SDS011;27537;57.134;-2.136;2023-12-04T11:02:25;12.57;;;3.75;;
41861;SDS011;27537;57.134;-2.136;2023-12-04T11:04:54;13.73;;;3.70;;
41861;SDS011;27537;57.134;-2.136;2023-12-04T11:07:25;15.20;;;3.55;;
41861;SDS011;27537;57.134;-2.136;2023-12-04T11:09:53;12.18;;;3.88;;
41861;SDS011;27537;57.134;-2.136;2023-12-04T11:12:21;13.48;;;3.92;;
41861;SDS011;27537;57.134;-2.136;2023-12-04T11:14:53;15.23;;;4.93;;
41861;SDS011;27537;57.134;-2.136;2023-12-04T11:19:55;9.02;;;2.67;;
41861;SDS011;27537;57.134;-2.136;2023-12-04T11:22:25;19.40;;;3.90;;
41861;SDS011;27537;57.134;-2.136;2023-12-04T11:24:52;11.05;;;3.08;;
41861;SDS011;27537;57.134;-2.136;2023-12-04T11:27:19;13.73;;;2.75;;
41861;SDS011;27537;57.134;-2.136;2023-12-04T11:29:46;9.30;;;2.47;;
41861;SDS011;27537;57.134;-2.136;2023-12-04T11:32:15;10.63;;;2.60;;
41861;SDS011;27537;57.134;-2.136;2023-12-04T11:34:49;14.32;;;3.65;;
41861;SDS011;27537;57.134;-2.136;2023-12-04T11:37:19;8.98;;;2.95;;
41861;SDS011;27537;57.134;-2.136;2023-12-04T11:39:46;15.05;;;2.72;;
41861;SDS011;27537;57.134;-2.136;2023-12-04T11:42:22;12.15;;;3.28;;
41861;SDS011;27537;57.134;-2.136;2023-12-04T11:44:59;12.00;;;3.03;;
41861;SDS011;27537;57.134;-2.136;2023-12-04T11:47:27;9.82;;;2.95;;
41861;SDS011;27537;57.134;-2.136;2023-12-04T11:49:55;17.63;;;3.95;;
41861;SDS011;27537;57.134;-2.136;2023-12-04T11:52:33;10.73;;;2.95;;
41861;SDS011;27537;57.134;-2.136;2023-12-04T11:55:02;11.75;;;2.55;;
41861;SDS011;27537;57.134;-2.136;2023-12-04T11:57:33;13.85;;;2.78;;
41861;SDS011;27537;57.134;-2.136;2023-12-04T12:00:08;12.68;;;3.08;;
41861;SDS011;27537;57.134;-2.136;2023-12-04T12:02:35;12.00;;;3.42;;
41861;SDS011;27537;57.134;-2.136;2023-12-04T12:05:24;15.43;;;3.70;;
41861;SDS011;27537;57.134;-2.136;2023-12-04T12:07:53;15.98;;;3.22;;
41861;SDS011;27537;57.134;-2.136;2023-12-04T12:10:21;8.73;;;2.92;;
41861;SDS011;27537;57.134;-2.136;2023-12-04T12:12:48;10.68;;;2.92;;
41861;SDS011;27537;57.134;-2.136;2023-12-04T12:15:15;10.38;;;2.50;;
41861;SDS011;27537;57.134;-2.136;2023-12-04T12:17:41;9.45;;;2.60;;
41861;SDS011;27537;57.134;-2.136;2023-12-04T12:20:09;18.33;;;3.53;;
41861;SDS011;27537;57.134;-2.136;2023-12-04T12:22:38;13.18;;;3.53;;
41861;SDS011;27537;57.134;-2.136;2023-12-04T12:25:10;8.63;;;3.28;;
41861;SDS011;27537;57.134;-2.136;2023-12-04T12:27:38;13.85;;;3.60;;
41861;SDS011;27537;57.134;-2.136;2023-12-04T12:30:05;18.00;;;3.63;;
41861;SDS011;27537;57.134;-2.136;2023-12-04T12:32:35;14.98;;;3.45;;
41861;SDS011;27537;57.134;-2.136;2023-12-04T12:35:02;13.40;;;3.40;;
41861;SDS011;27537;57.134;-2.136;2023-12-04T12:37:34;11.45;;;3.45;;
41861;SDS011;27537;57.134;-2.136;2023-12-04T12:40:01;20.33;;;4.53;;
41861;SDS011;27537;57.134;-2.136;2023-12-04T12:42:31;9.65;;;2.70;;
41861;SDS011;27537;57.134;-2.136;2023-12-04T12:45:00;10.73;;;3.50;;
41861;SDS011;27537;57.134;-2.136;2023-12-04T12:47:29;20.75;;;3.17;;
41861;SDS011;27537;57.134;-2.136;2023-12-04T12:49:56;19.40;;;3.38;;
41861;SDS011;27537;57.134;-2.136;2023-12-04T12:52:23;9.98;;;2.63;;
41861;SDS011;27537;57.134;-2.136;2023-12-04T12:54:49;11.20;;;2.97;;
41861;SDS011;27537;57.134;-2.136;2023-12-04T12:57:18;10.23;;;2.60;;
41861;SDS011;27537;57.134;-2.136;2023-12-04T12:59:44;14.88;;;3.10;;
41861;SDS011;27537;57.134;-2.136;2023-12-04T13:02:11;17.48;;;3.45;;
41861;SDS011;27537;57.134;-2.136;2023-12-04T13:04:40;11.90;;;3.05;;
41861;SDS011;27537;57.134;-2.136;2023-12-04T13:07:08;15.52;;;3.25;;
41861;SDS011;27537;57.134;-2.136;2023-12-04T13:09:35;13.98;;;3.67;;
41861;SDS011;27537;57.134;-2.136;2023-12-04T13:12:03;11.02;;;3.08;;
41861;SDS011;27537;57.134;-2.136;2023-12-04T13:14:31;16.67;;;3.70;;
41861;SDS011;27537;57.134;-2.136;2023-12-04T13:17:00;20.00;;;3.67;;
41861;SDS011;27537;57.134;-2.136;2023-12-04T13:19:27;12.00;;;3.67;;
41861;SDS011;27537;57.134;-2.136;2023-12-04T13:21:54;12.05;;;2.65;;
41861;SDS011;27537;57.134;-2.136;2023-12-04T13:24:21;14.68;;;3.58;;
41861;SDS011;27537;57.134;-2.136;2023-12-04T13:26:47;8.85;;;2.55;;
41861;SDS011;27537;57.134;-2.136;2023-12-04T13:29:14;11.10;;;3.10;;
41861;SDS011;27537;57.134;-2.136;2023-12-04T13:31:43;12.55;;;3.67;;
41861;SDS011;27537;57.134;-2.136;2023-12-04T13:34:12;12.55;;;2.80;;
41861;SDS011;27537;57.134;-2.136;2023-12-04T13:36:39;12.82;;;3.40;;
41861;SDS011;27537;57.134;-2.136;2023-12-04T13:39:07;12.13;;;3.25;;
41861;SDS011;27537;57.134;-2.136;2023-12-04T13:41:43;11.43;;;2.88;;
41861;SDS011;27537;57.134;-2.136;2023-12-04T13:44:30;9.68;;;2.70;;
41861;SDS011;27537;57.134;-2.136;2023-12-04T13:46:57;12.90;;;2.97;;
41861;SDS011;27537;57.134;-2.136;2023-12-04T13:49:23;10.70;;;2.90;;
41861;SDS011;27537;57.134;-2.136;2023-12-04T13:51:50;10.85;;;2.95;;
41861;SDS011;27537;57.134;-2.136;2023-12-04T13:54:17;10.45;;;3.50;;
41861;SDS011;27537;57.134;-2.136;2023-12-04T13:56:48;13.75;;;3.65;;
41861;SDS011;27537;57.134;-2.136;2023-12-04T13:59:22;12.75;;;2.10;;
41861;SDS011;27537;57.134;-2.136;2023-12-04T14:01:50;10.40;;;2.90;;
41861;SDS011;27537;57.134;-2.136;2023-12-04T14:04:18;13.43;;;3.45;;
41861;SDS011;27537;57.134;-2.136;2023-12-04T14:06:46;9.63;;;2.50;;
41861;SDS011;27537;57.134;-2.136;2023-12-04T14:09:13;10.38;;;3.13;;
41861;SDS011;27537;57.134;-2.136;2023-12-04T14:11:43;9.13;;;2.45;;
41861;SDS011;27537;57.134;-2.136;2023-12-04T14:14:11;11.77;;;3.00;;
41861;SDS011;27537;57.134;-2.136;2023-12-04T14:16:39;11.77;;;2.90;;
41861;SDS011;27537;57.134;-2.136;2023-12-04T14:19:07;14.27;;;2.90;;
41861;SDS011;27537;57.134;-2.136;2023-12-04T14:21:34;13.45;;;3.30;;
41861;SDS011;27537;57.134;-2.136;2023-12-04T14:24:01;11.25;;;2.50;;
41861;SDS011;27537;57.134;-2.136;2023-12-04T14:26:27;14.18;;;3.05;;
41861;SDS011;27537;57.134;-2.136;2023-12-04T14:28:54;13.68;;;3.25;;
41861;SDS011;27537;57.134;-2.136;2023-12-04T14:31:23;12.23;;;3.67;;
41861;SDS011;27537;57.134;-2.136;2023-12-04T14:33:50;12.82;;;3.13;;
41861;SDS011;27537;57.134;-2.136;2023-12-04T14:36:16;10.13;;;2.70;;